sensor_id;sensor_type;location;lat;lon;timestamp;pressure;altitude;pressure_sealevel;temperature;humidity
54453;BME280;40363;52.270;10.546;2023-03-20T00:01:10;76682.50;;;-147.06;100.00
54453;BME280;40363;52.270;10.546;2023-03-20T00:03:39;76682.50;;;-147.06;100.00
54453;BME280;40363;52.270;10.546;2023-03-20T00:06:13;76682.50;;;-147.06;100.00
54453;BME280;40363;52.270;10.546;2023-03-20T00:08:40;76690.72;;;-147.06;100.00
54453;BME280;40363;52.270;10.546;2023-03-20T00:11:26;76694.84;;;-147.06;100.00
54453;BME280;40363;52.270;10.546;2023-03-20T00:13:53;76701.00;;;-147.06;100.00
54453;BME280;40363;52.270;10.546;2023-03-20T00:16:22;76711.28;;;-147.06;100.00
54453;BME280;40363;52.270;10.546;2023-03-20T00:18:51;76715.38;;;-147.06;100.00
54453;BME280;40363;52.270;10.546;2023-03-20T00:21:21;76715.38;;;-147.06;100.00
54453;BME280;40363;52.270;10.546;2023-03-20T00:23:47;76713.34;;;-147.06;100.00
54453;BME280;40363;52.270;10.546;2023-03-20T00:26:15;76713.34;;;-147.06;100.00
54453;BME280;40363;52.270;10.546;2023-03-20T00:28:44;76715.38;;;-147.06;100.00
54453;BME280;40363;52.270;10.546;2023-03-20T00:31:20;76715.38;;;-147.06;100.00
54453;BME280;40363;52.270;10.546;2023-03-20T00:33:49;76711.28;;;-147.06;100.00
54453;BME280;40363;52.270;10.546;2023-03-20T00:36:17;76703.06;;;-147.06;100.00
54453;BME280;40363;52.270;10.546;2023-03-20T00:38:44;76698.94;;;-147.06;100.00
54453;BME280;40363;52.270;10.546;2023-03-20T00:41:20;76696.88;;;-147.06;100.00
54453;BME280;40363;52.270;10.546;2023-03-20T00:43:48;76703.06;;;-147.06;100.00
54453;BME280;40363;52.270;10.546;2023-03-20T00:46:17;76705.13;;;-147.06;100.00
54453;BME280;40363;52.270;10.546;2023-03-20T00:48:45;76705.13;;;-147.06;100.00
54453;BME280;40363;52.270;10.546;2023-03-20T00:51:12;76703.06;;;-147.06;100.00
54453;BME280;40363;52.270;10.546;2023-03-20T00:53:40;76711.28;;;-147.06;100.00
54453;BME280;40363;52.270;10.546;2023-03-20T00:56:27;76717.44;;;-147.06;100.00
54453;BME280;40363;52.270;10.546;2023-03-20T00:58:54;76727.72;;;-147.06;100.00
54453;BME280;40363;52.270;10.546;2023-03-20T01:01:22;76719.50;;;-147.06;100.00
54453;BME280;40363;52.270;10.546;2023-03-20T01:03:49;76723.63;;;-147.06;100.00
54453;BME280;40363;52.270;10.546;2023-03-20T01:06:15;76729.78;;;-147.06;100.00
54453;BME280;40363;52.270;10.546;2023-03-20T01:08:44;76729.78;;;-147.06;100.00
54453;BME280;40363;52.270;10.546;2023-03-20T01:11:13;76731.84;;;-147.06;100.00
54453;BME280;40363;52.270;10.546;2023-03-20T01:13:42;76731.84;;;-147.06;100.00
54453;BME280;40363;52.270;10.546;2023-03-20T01:16:17;76731.84;;;-147.06;100.00
54453;BME280;40363;52.270;10.546;2023-03-20T01:18:44;76740.06;;;-147.06;100.00
54453;BME280;40363;52.270;10.546;2023-03-20T01:21:11;76740.06;;;-147.06;100.00
54453;BME280;40363;52.270;10.546;2023-03-20T01:23:38;76752.38;;;-147.06;100.00
54453;BME280;40363;52.270;10.546;2023-03-20T01:26:17;76752.38;;;-147.06;100.00
54453;BME280;40363;52.270;10.546;2023-03-20T01:28:45;76756.50;;;-147.06;100.00
54453;BME280;40363;52.270;10.546;2023-03-20T01:31:13;76748.28;;;-147.06;100.00
54453;BME280;40363;52.270;10.546;2023-03-20T01:33:40;76748.28;;;-147.06;100.00
54453;BME280;40363;52.270;10.546;2023-03-20T01:36:09;76746.22;;;-147.06;100.00
54453;BME280;40363;52.270;10.546;2023-03-20T01:38:37;76758.56;;;-147.06;100.00
54453;BME280;40363;52.270;10.546;2023-03-20T01:41:08;76752.38;;;-147.06;100.00
54453;BME280;40363;52.270;10.546;2023-03-20T01:43:37;76754.44;;;-147.06;100.00
54453;BME280;40363;52.270;10.546;2023-03-20T01:46:14;76756.50;;;-147.06;100.00
54453;BME280;40363;52.270;10.546;2023-03-20T01:49:00;76756.50;;;-147.06;100.00
54453;BME280;40363;52.270;10.546;2023-03-20T01:51:30;76764.72;;;-147.06;100.00
54453;BME280;40363;52.270;10.546;2023-03-20T01:54:03;76756.50;;;-147.06;100.00
54453;BME280;40363;52.270;10.546;2023-03-20T01:56:36;76762.66;;;-147.06;100.00
54453;BME280;40363;52.270;10.546;2023-03-20T01:59:08;76772.94;;;-147.06;100.00
54453;BME280;40363;52.270;10.546;2023-03-20T02:01:36;76781.16;;;-147.06;100.00
54453;BME280;40363;52.270;10.546;2023-03-20T02:04:03;76770.88;;;-147.06;100.00
54453;BME280;40363;52.270;10.546;2023-03-20T02:06:31;76785.28;;;-147.06;100.00
54453;BME280;40363;52.270;10.546;2023-03-20T02:08:58;76795.56;;;-147.06;100.00
54453;BME280;40363;52.270;10.546;2023-03-20T02:11:25;76820.22;;;-147.06;100.00
54453;BME280;40363;52.270;10.546;2023-03-20T02:13:56;76822.28;;;-147.06;100.00
54453;BME280;40363;52.270;10.546;2023-03-20T02:16:23;76834.63;;;-147.06;100.00
54453;BME280;40363;52.270;10.546;2023-03-20T02:18:51;76859.28;;;-147.06;100.00
54453;BME280;40363;52.270;10.546;2023-03-20T02:21:45;76863.38;;;-147.06;100.00
54453;BME280;40363;52.270;10.546;2023-03-20T02:27:20;76904.50;;;-147.06;100.00
54453;BME280;40363;52.270;10.546;2023-03-20T02:33:32;76925.06;;;-147.06;100.00
54453;BME280;40363;52.270;10.546;2023-03-20T02:36:31;76929.16;;;-147.06;100.00
54453;BME280;40363;52.270;10.546;2023-03-20T02:39:16;76927.13;;;-147.06;100.00
54453;BME280;40363;52.270;10.546;2023-03-20T02:41:51;76935.34;;;-147.06;100.00
54453;BME280;40363;52.270;10.546;2023-03-20T02:44:27;76937.38;;;-147.06;100.00
54453;BME280;40363;52.270;10.546;2023-03-20T02:47:02;76937.38;;;-147.06;100.00
54453;BME280;40363;52.270;10.546;2023-03-20T02:49:41;76939.44;;;-147.06;100.00
54453;BME280;40363;52.270;10.546;2023-03-20T02:52:17;76937.38;;;-147.06;100.00
54453;BME280;40363;52.270;10.546;2023-03-20T02:54:52;76918.88;;;-147.06;100.00
54453;BME280;40363;52.270;10.546;2023-03-20T02:57:29;76933.28;;;-147.06;100.00
54453;BME280;40363;52.270;10.546;2023-03-20T03:00:03;76943.56;;;-147.06;100.00
54453;BME280;40363;52.270;10.546;2023-03-20T03:02:40;76945.63;;;-147.06;100.00
54453;BME280;40363;52.270;10.546;2023-03-20T03:05:14;76941.50;;;-147.06;100.00
54453;BME280;40363;52.270;10.546;2023-03-20T03:07:44;76941.50;;;-147.06;100.00
54453;BME280;40363;52.270;10.546;2023-03-20T03:10:17;76945.63;;;-147.06;100.00
54453;BME280;40363;52.270;10.546;2023-03-20T03:12:47;76953.84;;;-147.06;100.00
54453;BME280;40363;52.270;10.546;2023-03-20T03:15:18;76953.84;;;-147.06;100.00
54453;BME280;40363;52.270;10.546;2023-03-20T03:17:47;76962.06;;;-147.06;100.00
54453;BME280;40363;52.270;10.546;2023-03-20T03:20:20;76957.94;;;-147.06;100.00
54453;BME280;40363;52.270;10.546;2023-03-20T03:22:49;76964.13;;;-147.06;100.00
54453;BME280;40363;52.270;10.546;2023-03-20T03:25:20;76941.50;;;-147.06;100.00
54453;BME280;40363;52.270;10.546;2023-03-20T03:27:53;76955.88;;;-147.06;100.00
54453;BME280;40363;52.270;10.546;2023-03-20T03:30:24;76945.63;;;-147.06;100.00
54453;BME280;40363;52.270;10.546;2023-03-20T03:33:05;76949.72;;;-147.06;100.00
54453;BME280;40363;52.270;10.546;2023-03-20T03:35:34;76960.00;;;-147.06;100.00
54453;BME280;40363;52.270;10.546;2023-03-20T03:38:03;76949.72;;;-147.06;100.00
54453;BME280;40363;52.270;10.546;2023-03-20T03:40:41;76941.50;;;-147.06;100.00
54453;BME280;40363;52.270;10.546;2023-03-20T03:43:15;76947.66;;;-147.06;100.00
54453;BME280;40363;52.270;10.546;2023-03-20T03:45:46;76949.72;;;-147.06;100.00
54453;BME280;40363;52.270;10.546;2023-03-20T03:48:17;76949.72;;;-147.06;100.00
54453;BME280;40363;52.270;10.546;2023-03-20T03:50:48;76957.94;;;-147.06;100.00
54453;BME280;40363;52.270;10.546;2023-03-20T03:53:19;76941.50;;;-147.06;100.00
54453;BME280;40363;52.270;10.546;2023-03-20T03:55:52;76943.56;;;-147.06;100.00
54453;BME280;40363;52.270;10.546;2023-03-20T03:58:24;76937.38;;;-147.06;100.00
54453;BME280;40363;52.270;10.546;2023-03-20T04:00:55;76935.34;;;-147.06;100.00
54453;BME280;40363;52.270;10.546;2023-03-20T04:03:27;76941.50;;;-147.06;100.00
54453;BME280;40363;52.270;10.546;2023-03-20T04:05:57;76935.34;;;-147.06;100.00
54453;BME280;40363;52.270;10.546;2023-03-20T04:08:25;76939.44;;;-147.06;100.00
54453;BME280;40363;52.270;10.546;2023-03-20T04:10:53;76957.94;;;-147.06;100.00
54453;BME280;40363;52.270;10.546;2023-03-20T04:13:20;76953.84;;;-147.06;100.00
54453;BME280;40363;52.270;10.546;2023-03-20T04:15:47;76966.16;;;-147.06;100.00
54453;BME280;40363;52.270;10.546;2023-03-20T04:18:14;76972.34;;;-147.06;100.00
54453;BME280;40363;52.270;10.546;2023-03-20T04:20:41;76978.50;;;-147.06;100.00
54453;BME280;40363;52.270;10.546;2023-03-20T04:23:08;76974.38;;;-147.06;100.00
54453;BME280;40363;52.270;10.546;2023-03-20T04:25:35;76964.13;;;-147.06;100.00
54453;BME280;40363;52.270;10.546;2023-03-20T04:28:03;76962.06;;;-147.06;100.00
54453;BME280;40363;52.270;10.546;2023-03-20T04:30:30;76968.22;;;-147.06;100.00
54453;BME280;40363;52.270;10.546;2023-03-20T04:32:56;76957.94;;;-147.06;100.00
54453;BME280;40363;52.270;10.546;2023-03-20T04:35:23;76970.28;;;-147.06;100.00
54453;BME280;40363;52.270;10.546;2023-03-20T04:37:50;76966.16;;;-147.06;100.00
54453;BME280;40363;52.270;10.546;2023-03-20T04:40:17;76962.06;;;-147.06;100.00
54453;BME280;40363;52.270;10.546;2023-03-20T04:42:43;76949.72;;;-147.06;100.00
54453;BME280;40363;52.270;10.546;2023-03-20T04:45:12;76949.72;;;-147.06;100.00
54453;BME280;40363;52.270;10.546;2023-03-20T04:47:39;76978.50;;;-147.06;100.00
54453;BME280;40363;52.270;10.546;2023-03-20T04:50:06;76978.50;;;-147.06;100.00
54453;BME280;40363;52.270;10.546;2023-03-20T04:52:33;76994.94;;;-147.06;100.00
54453;BME280;40363;52.270;10.546;2023-03-20T04:54:59;76999.06;;;-147.06;100.00
54453;BME280;40363;52.270;10.546;2023-03-20T04:57:26;76997.00;;;-147.06;100.00
54453;BME280;40363;52.270;10.546;2023-03-20T04:59:53;76997.00;;;-147.06;100.00
54453;BME280;40363;52.270;10.546;2023-03-20T05:02:21;76990.84;;;-147.06;100.00
54453;BME280;40363;52.270;10.546;2023-03-20T05:04:48;76990.84;;;-147.06;100.00
54453;BME280;40363;52.270;10.546;2023-03-20T05:07:15;76986.72;;;-147.06;100.00
54453;BME280;40363;52.270;10.546;2023-03-20T05:09:41;76974.38;;;-147.06;100.00
54453;BME280;40363;52.270;10.546;2023-03-20T05:12:08;76972.34;;;-147.06;100.00
54453;BME280;40363;52.270;10.546;2023-03-20T05:14:35;76964.13;;;-147.06;100.00
54453;BME280;40363;52.270;10.546;2023-03-20T05:17:02;76968.22;;;-147.06;100.00
54453;BME280;40363;52.270;10.546;2023-03-20T05:19:30;76960.00;;;-147.06;100.00
54453;BME280;40363;52.270;10.546;2023-03-20T05:21:56;76968.22;;;-147.06;100.00
54453;BME280;40363;52.270;10.546;2023-03-20T05:24:23;76966.16;;;-147.06;100.00
54453;BME280;40363;52.270;10.546;2023-03-20T05:26:50;76966.16;;;-147.06;100.00
54453;BME280;40363;52.270;10.546;2023-03-20T05:29:16;76955.88;;;-147.06;100.00
54453;BME280;40363;52.270;10.546;2023-03-20T05:31:43;76970.28;;;-147.06;100.00
54453;BME280;40363;52.270;10.546;2023-03-20T05:34:10;76966.16;;;-147.06;100.00
54453;BME280;40363;52.270;10.546;2023-03-20T05:36:38;76955.88;;;-147.06;100.00
54453;BME280;40363;52.270;10.546;2023-03-20T05:39:05;76960.00;;;-147.06;100.00
54453;BME280;40363;52.270;10.546;2023-03-20T05:41:31;76957.94;;;-147.06;100.00
54453;BME280;40363;52.270;10.546;2023-03-20T05:43:58;76962.06;;;-147.06;100.00
54453;BME280;40363;52.270;10.546;2023-03-20T05:46:25;76964.13;;;-147.06;100.00
54453;BME280;40363;52.270;10.546;2023-03-20T05:48:51;76955.88;;;-147.06;100.00
54453;BME280;40363;52.270;10.546;2023-03-20T05:51:18;76957.94;;;-147.06;100.00
54453;BME280;40363;52.270;10.546;2023-03-20T05:53:46;76947.66;;;-147.06;99.78
54453;BME280;40363;52.270;10.546;2023-03-20T05:56:13;76947.66;;;-147.06;98.49
54453;BME280;40363;52.270;10.546;2023-03-20T05:58:40;76941.50;;;-147.06;98.09
54453;BME280;40363;52.270;10.546;2023-03-20T06:01:07;76939.44;;;-147.06;97.49
54453;BME280;40363;52.270;10.546;2023-03-20T06:03:34;76931.22;;;-147.06;96.52
54453;BME280;40363;52.270;10.546;2023-03-20T06:06:01;76925.06;;;-147.06;95.32
54453;BME280;40363;52.270;10.546;2023-03-20T06:08:27;76927.13;;;-147.06;95.63
54453;BME280;40363;52.270;10.546;2023-03-20T06:10:56;76912.72;;;-147.06;94.44
54453;BME280;40363;52.270;10.546;2023-03-20T06:13:22;76912.72;;;-147.06;94.25
54453;BME280;40363;52.270;10.546;2023-03-20T06:15:49;76910.66;;;-147.06;94.05
54453;BME280;40363;52.270;10.546;2023-03-20T06:18:16;76900.38;;;-147.06;92.91
54453;BME280;40363;52.270;10.546;2023-03-20T06:20:42;76896.28;;;-147.06;92.55
54453;BME280;40363;52.270;10.546;2023-03-20T06:23:09;76892.16;;;-147.06;92.29
54453;BME280;40363;52.270;10.546;2023-03-20T06:25:36;76883.94;;;-147.06;92.08
54453;BME280;40363;52.270;10.546;2023-03-20T06:28:04;76881.88;;;-147.06;92.32
54453;BME280;40363;52.270;10.546;2023-03-20T06:30:31;76892.16;;;-147.06;92.06
54453;BME280;40363;52.270;10.546;2023-03-20T06:32:58;76894.22;;;-147.06;92.56
54453;BME280;40363;52.270;10.546;2023-03-20T06:35:24;76894.22;;;-147.06;91.99
54453;BME280;40363;52.270;10.546;2023-03-20T06:37:55;76896.28;;;-147.06;91.62
54453;BME280;40363;52.270;10.546;2023-03-20T06:40:22;76886.00;;;-147.06;92.10
54453;BME280;40363;52.270;10.546;2023-03-20T06:42:49;76912.72;;;-147.06;91.38
54453;BME280;40363;52.270;10.546;2023-03-20T06:45:17;76904.50;;;-147.06;91.41
54453;BME280;40363;52.270;10.546;2023-03-20T06:47:44;76902.44;;;-147.06;91.83
54453;BME280;40363;52.270;10.546;2023-03-20T06:50:12;76908.63;;;-147.06;91.70
54453;BME280;40363;52.270;10.546;2023-03-20T06:52:39;76908.63;;;-147.06;91.24
54453;BME280;40363;52.270;10.546;2023-03-20T06:55:06;76914.78;;;-147.06;91.52
54453;BME280;40363;52.270;10.546;2023-03-20T06:57:33;76916.84;;;-147.06;91.93
54453;BME280;40363;52.270;10.546;2023-03-20T06:59:59;76910.66;;;-147.06;91.78
54453;BME280;40363;52.270;10.546;2023-03-20T07:02:27;76900.38;;;-147.06;91.38
54453;BME280;40363;52.270;10.546;2023-03-20T07:04:54;76894.22;;;-147.06;91.32
54453;BME280;40363;52.270;10.546;2023-03-20T07:07:20;76892.16;;;-147.06;91.60
54453;BME280;40363;52.270;10.546;2023-03-20T07:09:50;76892.16;;;-147.06;91.43
54453;BME280;40363;52.270;10.546;2023-03-20T07:12:16;76902.44;;;-147.06;90.97
54453;BME280;40363;52.270;10.546;2023-03-20T07:14:44;76906.56;;;-147.06;91.01
54453;BME280;40363;52.270;10.546;2023-03-20T07:17:11;76906.56;;;-147.06;91.50
54453;BME280;40363;52.270;10.546;2023-03-20T07:19:39;76904.50;;;-147.06;91.06
54453;BME280;40363;52.270;10.546;2023-03-20T07:22:07;76904.50;;;-147.06;91.14
54453;BME280;40363;52.270;10.546;2023-03-20T07:24:41;76925.06;;;-147.06;91.45
54453;BME280;40363;52.270;10.546;2023-03-20T07:27:08;76916.84;;;-147.06;91.54
54453;BME280;40363;52.270;10.546;2023-03-20T07:29:34;76916.84;;;-147.06;91.46
54453;BME280;40363;52.270;10.546;2023-03-20T07:32:02;76916.84;;;-147.06;91.83
54453;BME280;40363;52.270;10.546;2023-03-20T07:34:28;76918.88;;;-147.06;91.63
54453;BME280;40363;52.270;10.546;2023-03-20T07:36:56;76918.88;;;-147.06;91.94
54453;BME280;40363;52.270;10.546;2023-03-20T07:39:23;76914.78;;;-147.06;91.95
54453;BME280;40363;52.270;10.546;2023-03-20T07:41:49;76888.06;;;-147.06;91.20
54453;BME280;40363;52.270;10.546;2023-03-20T07:44:16;76896.28;;;-147.06;91.38
54453;BME280;40363;52.270;10.546;2023-03-20T07:46:43;76892.16;;;-147.06;91.53
54453;BME280;40363;52.270;10.546;2023-03-20T07:49:11;76890.13;;;-147.06;91.73
54453;BME280;40363;52.270;10.546;2023-03-20T07:51:37;76886.00;;;-147.06;91.32
54453;BME280;40363;52.270;10.546;2023-03-20T07:54:05;76881.88;;;-147.06;91.36
54453;BME280;40363;52.270;10.546;2023-03-20T07:56:32;76883.94;;;-147.06;91.19
54453;BME280;40363;52.270;10.546;2023-03-20T07:58:58;76888.06;;;-147.06;92.02
54453;BME280;40363;52.270;10.546;2023-03-20T08:01:25;76879.84;;;-147.06;92.08
54453;BME280;40363;52.270;10.546;2023-03-20T08:03:52;76879.84;;;-147.06;91.75
54453;BME280;40363;52.270;10.546;2023-03-20T08:06:19;76867.50;;;-147.06;91.27
54453;BME280;40363;52.270;10.546;2023-03-20T08:08:45;76863.38;;;-147.06;91.38
54453;BME280;40363;52.270;10.546;2023-03-20T08:11:15;76849.00;;;-147.06;90.96
54453;BME280;40363;52.270;10.546;2023-03-20T08:13:41;76840.78;;;-147.06;90.61
54453;BME280;40363;52.270;10.546;2023-03-20T08:16:08;76840.78;;;-147.06;90.39
54453;BME280;40363;52.270;10.546;2023-03-20T08:18:35;76842.84;;;-147.06;89.69
54453;BME280;40363;52.270;10.546;2023-03-20T08:21:01;76838.72;;;-147.06;90.16
54453;BME280;40363;52.270;10.546;2023-03-20T08:23:28;76838.72;;;-147.06;89.84
54453;BME280;40363;52.270;10.546;2023-03-20T08:25:55;76840.78;;;-147.06;89.79
54453;BME280;40363;52.270;10.546;2023-03-20T08:28:23;76865.44;;;-147.06;89.61
54453;BME280;40363;52.270;10.546;2023-03-20T08:30:50;76863.38;;;-147.06;90.55
54453;BME280;40363;52.270;10.546;2023-03-20T08:33:17;76857.22;;;-147.06;90.73
54453;BME280;40363;52.270;10.546;2023-03-20T08:35:54;76861.34;;;-147.06;90.54
54453;BME280;40363;52.270;10.546;2023-03-20T08:38:20;76851.06;;;-147.06;90.87
54453;BME280;40363;52.270;10.546;2023-03-20T08:40:47;76859.28;;;-147.06;91.03
54453;BME280;40363;52.270;10.546;2023-03-20T08:43:14;76855.16;;;-147.06;90.87
54453;BME280;40363;52.270;10.546;2023-03-20T08:45:42;76840.78;;;-147.06;90.66
54453;BME280;40363;52.270;10.546;2023-03-20T08:48:08;76838.72;;;-147.06;90.09
54453;BME280;40363;52.270;10.546;2023-03-20T08:50:35;76826.38;;;-147.06;89.44
54453;BME280;40363;52.270;10.546;2023-03-20T08:53:02;76789.38;;;-147.06;88.01
54453;BME280;40363;52.270;10.546;2023-03-20T08:55:29;76756.50;;;-147.06;86.34
54453;BME280;40363;52.270;10.546;2023-03-20T08:57:56;76731.84;;;-147.06;84.70
54453;BME280;40363;52.270;10.546;2023-03-20T09:00:23;76711.28;;;-147.06;82.75
54453;BME280;40363;52.270;10.546;2023-03-20T09:02:51;76690.72;;;-147.06;81.37
54453;BME280;40363;52.270;10.546;2023-03-20T09:05:18;76682.50;;;-147.06;79.95
54453;BME280;40363;52.270;10.546;2023-03-20T09:07:44;76686.63;;;-147.06;80.05
54453;BME280;40363;52.270;10.546;2023-03-20T09:10:11;76719.50;;;-147.06;80.53
54453;BME280;40363;52.270;10.546;2023-03-20T09:12:38;76744.16;;;-147.06;80.21
54453;BME280;40363;52.270;10.546;2023-03-20T09:15:06;76785.28;;;-147.06;80.80
54453;BME280;40363;52.270;10.546;2023-03-20T09:17:32;76807.88;;;-147.06;81.58
54453;BME280;40363;52.270;10.546;2023-03-20T09:20:00;76809.94;;;-147.06;81.47
54453;BME280;40363;52.270;10.546;2023-03-20T09:22:27;76828.44;;;-147.06;81.99
54453;BME280;40363;52.270;10.546;2023-03-20T09:24:54;76828.44;;;-147.06;81.25
54453;BME280;40363;52.270;10.546;2023-03-20T09:27:20;76832.56;;;-147.06;80.52
54453;BME280;40363;52.270;10.546;2023-03-20T09:29:47;76842.84;;;-147.06;80.86
54453;BME280;40363;52.270;10.546;2023-03-20T09:32:14;76859.28;;;-147.06;80.57
54453;BME280;40363;52.270;10.546;2023-03-20T09:34:41;76855.16;;;-147.06;80.68
54453;BME280;40363;52.270;10.546;2023-03-20T09:37:09;76842.84;;;-147.06;80.49
54453;BME280;40363;52.270;10.546;2023-03-20T09:39:37;76818.16;;;-147.06;79.98
54453;BME280;40363;52.270;10.546;2023-03-20T09:42:08;76834.63;;;-147.06;80.10
54453;BME280;40363;52.270;10.546;2023-03-20T09:44:48;76814.06;;;-147.06;79.51
54453;BME280;40363;52.270;10.546;2023-03-20T09:47:24;76814.06;;;-147.06;79.52
54453;BME280;40363;52.270;10.546;2023-03-20T09:50:12;76793.50;;;-147.06;78.84
54453;BME280;40363;52.270;10.546;2023-03-20T09:52:53;76797.63;;;-147.06;78.05
54453;BME280;40363;52.270;10.546;2023-03-20T09:55:29;76809.94;;;-147.06;78.16
54453;BME280;40363;52.270;10.546;2023-03-20T09:58:02;76834.63;;;-147.06;78.49
54453;BME280;40363;52.270;10.546;2023-03-20T10:00:31;76809.94;;;-147.06;78.75
54453;BME280;40363;52.270;10.546;2023-03-20T10:03:01;76816.13;;;-147.06;79.21
54453;BME280;40363;52.270;10.546;2023-03-20T10:05:30;76830.50;;;-147.06;78.49
54453;BME280;40363;52.270;10.546;2023-03-20T10:08:00;76816.13;;;-147.06;77.77
54453;BME280;40363;52.270;10.546;2023-03-20T10:10:38;76830.50;;;-147.06;78.34
54453;BME280;40363;52.270;10.546;2023-03-20T10:13:21;76816.13;;;-147.06;78.14
54453;BME280;40363;52.270;10.546;2023-03-20T10:15:53;76818.16;;;-147.06;77.86
54453;BME280;40363;52.270;10.546;2023-03-20T10:18:24;76805.84;;;-147.06;77.89
54453;BME280;40363;52.270;10.546;2023-03-20T10:20:54;76789.38;;;-147.06;77.22
54453;BME280;40363;52.270;10.546;2023-03-20T10:23:32;76809.94;;;-147.06;77.26
54453;BME280;40363;52.270;10.546;2023-03-20T10:26:04;76814.06;;;-147.06;77.25
54453;BME280;40363;52.270;10.546;2023-03-20T10:28:35;76814.06;;;-147.06;77.32
54453;BME280;40363;52.270;10.546;2023-03-20T10:31:14;76789.38;;;-147.06;76.34
54453;BME280;40363;52.270;10.546;2023-03-20T10:33:52;76805.84;;;-147.06;76.44
54453;BME280;40363;52.270;10.546;2023-03-20T10:36:34;76783.22;;;-147.06;75.66
54453;BME280;40363;52.270;10.546;2023-03-20T10:39:08;76787.34;;;-147.06;76.42
54453;BME280;40363;52.270;10.546;2023-03-20T10:41:41;76814.06;;;-147.06;76.60
54453;BME280;40363;52.270;10.546;2023-03-20T10:44:15;76801.72;;;-147.06;76.64
54453;BME280;40363;52.270;10.546;2023-03-20T10:46:47;76787.34;;;-147.06;76.68
54453;BME280;40363;52.270;10.546;2023-03-20T10:49:18;76783.22;;;-147.06;76.17
54453;BME280;40363;52.270;10.546;2023-03-20T10:51:48;76787.34;;;-147.06;75.97
54453;BME280;40363;52.270;10.546;2023-03-20T10:54:23;76777.06;;;-147.06;75.60
54453;BME280;40363;52.270;10.546;2023-03-20T10:56:54;76793.50;;;-147.06;76.06
54453;BME280;40363;52.270;10.546;2023-03-20T10:59:23;76799.66;;;-147.06;76.12
54453;BME280;40363;52.270;10.546;2023-03-20T11:01:51;76828.44;;;-147.06;76.42
54453;BME280;40363;52.270;10.546;2023-03-20T11:04:18;76838.72;;;-147.06;76.47
54453;BME280;40363;52.270;10.546;2023-03-20T11:06:47;76818.16;;;-147.06;76.04
54453;BME280;40363;52.270;10.546;2023-03-20T11:09:18;76822.28;;;-147.06;76.14
54453;BME280;40363;52.270;10.546;2023-03-20T11:11:47;76816.13;;;-147.06;75.96
54453;BME280;40363;52.270;10.546;2023-03-20T11:14:18;76818.16;;;-147.06;76.09
54453;BME280;40363;52.270;10.546;2023-03-20T11:16:47;76791.44;;;-147.06;75.60
54453;BME280;40363;52.270;10.546;2023-03-20T11:19:15;76797.63;;;-147.06;75.97
54453;BME280;40363;52.270;10.546;2023-03-20T11:21:47;76785.28;;;-147.06;75.60
54453;BME280;40363;52.270;10.546;2023-03-20T11:24:24;76787.34;;;-147.06;76.35
54453;BME280;40363;52.270;10.546;2023-03-20T11:26:54;76795.56;;;-147.06;76.34
54453;BME280;40363;52.270;10.546;2023-03-20T11:29:30;76793.50;;;-147.06;76.02
54453;BME280;40363;52.270;10.546;2023-03-20T11:32:04;76783.22;;;-147.06;76.21
54453;BME280;40363;52.270;10.546;2023-03-20T11:34:36;76764.72;;;-147.06;76.00
54453;BME280;40363;52.270;10.546;2023-03-20T11:37:12;76775.00;;;-147.06;76.22
54453;BME280;40363;52.270;10.546;2023-03-20T11:39:52;76748.28;;;-147.06;76.15
54453;BME280;40363;52.270;10.546;2023-03-20T11:42:24;76723.63;;;-147.06;75.58
54453;BME280;40363;52.270;10.546;2023-03-20T11:44:58;76707.16;;;-147.06;75.16
54453;BME280;40363;52.270;10.546;2023-03-20T11:47:27;76694.84;;;-147.06;74.18
54453;BME280;40363;52.270;10.546;2023-03-20T11:49:55;76682.50;;;-147.06;72.65
54453;BME280;40363;52.270;10.546;2023-03-20T11:52:24;76680.44;;;-147.06;71.81
54453;BME280;40363;52.270;10.546;2023-03-20T11:54:56;76690.72;;;-147.06;70.80
54453;BME280;40363;52.270;10.546;2023-03-20T11:57:33;76678.41;;;-147.06;70.03
54453;BME280;40363;52.270;10.546;2023-03-20T12:00:04;76686.63;;;-147.06;70.10
54453;BME280;40363;52.270;10.546;2023-03-20T12:02:31;76692.78;;;-147.06;70.05
54453;BME280;40363;52.270;10.546;2023-03-20T12:04:58;76694.84;;;-147.06;69.99
54453;BME280;40363;52.270;10.546;2023-03-20T12:07:28;76688.66;;;-147.06;69.56
54453;BME280;40363;52.270;10.546;2023-03-20T12:09:57;76701.00;;;-147.06;68.23
54453;BME280;40363;52.270;10.546;2023-03-20T12:12:35;76694.84;;;-147.06;66.95
54453;BME280;40363;52.270;10.546;2023-03-20T12:15:12;76678.41;;;-147.06;66.64
54453;BME280;40363;52.270;10.546;2023-03-20T12:17:45;76670.16;;;-147.06;66.44
54453;BME280;40363;52.270;10.546;2023-03-20T12:20:21;76668.13;;;-147.06;66.71
54453;BME280;40363;52.270;10.546;2023-03-20T12:22:55;76649.63;;;-147.06;66.33
54453;BME280;40363;52.270;10.546;2023-03-20T12:25:24;76664.00;;;-147.06;66.57
54453;BME280;40363;52.270;10.546;2023-03-20T12:28:02;76651.66;;;-147.06;66.01
54453;BME280;40363;52.270;10.546;2023-03-20T12:30:35;76629.06;;;-147.06;65.50
54453;BME280;40363;52.270;10.546;2023-03-20T12:33:12;76585.91;;;-147.06;64.13
54453;BME280;40363;52.270;10.546;2023-03-20T12:35:44;76559.19;;;-147.06;61.76
54453;BME280;40363;52.270;10.546;2023-03-20T12:38:22;76544.78;;;-147.06;61.51
54453;BME280;40363;52.270;10.546;2023-03-20T12:40:54;76555.06;;;-147.06;61.11
54453;BME280;40363;52.270;10.546;2023-03-20T12:43:24;76581.78;;;-147.06;61.13
54453;BME280;40363;52.270;10.546;2023-03-20T12:45:55;76602.34;;;-147.06;61.73